createdAt,value
2023-06-30T00:00:10.598Z,94715.00
2023-06-30T00:01:10.750Z,94715.00
2023-06-30T00:02:10.727Z,94712.00
2023-06-30T00:03:10.864Z,94712.00
2023-06-30T00:04:10.836Z,94715.00
2023-06-30T00:05:10.975Z,94713.00
2023-06-30T00:06:10.936Z,94712.00
2023-06-30T00:07:11.080Z,94706.00
2023-06-30T00:08:11.057Z,94704.00
2023-06-30T00:09:11.198Z,94698.00
2023-06-30T00:10:11.256Z,94700.00
2023-06-30T00:11:11.624Z,94702.00
2023-06-30T00:12:11.348Z,94702.00
2023-06-30T00:13:11.356Z,94702.00
2023-06-30T00:14:11.453Z,94700.00
2023-06-30T00:15:11.512Z,94700.00
2023-06-30T00:16:11.742Z,94700.00
2023-06-30T00:17:11.646Z,94700.00
2023-06-30T00:18:11.816Z,94696.00
2023-06-30T00:19:11.746Z,94698.00
2023-06-30T00:20:11.884Z,94694.00
2023-06-30T00:21:11.916Z,94692.00
2023-06-30T00:22:11.977Z,94688.00
2023-06-30T00:23:12.001Z,94684.00
2023-06-30T00:24:12.645Z,94686.00
2023-06-30T00:25:12.895Z,94684.00
2023-06-30T00:26:12.099Z,94686.00
2023-06-30T00:27:12.131Z,94688.00
2023-06-30T00:28:12.126Z,94690.00
2023-06-30T00:29:12.083Z,94690.00
2023-06-30T00:30:12.142Z,94692.00
2023-06-30T00:31:12.126Z,94688.00
2023-06-30T00:32:12.064Z,94688.00
2023-06-30T00:33:12.384Z,94686.00
2023-06-30T00:34:12.073Z,94684.00
2023-06-30T00:35:12.013Z,94684.00
2023-06-30T00:36:12.116Z,94684.00
2023-06-30T00:37:12.105Z,94686.00
2023-06-30T00:38:12.043Z,94682.00
2023-06-30T00:39:12.047Z,94680.00
2023-06-30T00:40:11.985Z,94678.00
2023-06-30T00:41:12.014Z,94674.00
2023-06-30T00:42:12.007Z,94670.00
2023-06-30T00:43:12.028Z,94672.00
2023-06-30T00:44:12.061Z,94670.00
2023-06-30T00:45:11.949Z,94670.00
2023-06-30T00:46:11.995Z,94668.00
2023-06-30T00:47:12.146Z,94666.00
2023-06-30T00:48:11.953Z,94666.00
2023-06-30T00:49:11.947Z,94666.00
2023-06-30T00:50:11.957Z,94664.00
2023-06-30T00:51:11.937Z,94666.00
2023-06-30T00:52:11.942Z,94668.00
2023-06-30T00:53:11.947Z,94668.00
2023-06-30T00:54:11.907Z,94668.00
2023-06-30T00:55:11.951Z,94666.00
2023-06-30T00:56:11.909Z,94664.00
2023-06-30T00:57:11.926Z,94664.00
2023-06-30T00:58:11.926Z,94661.00
2023-06-30T00:59:11.937Z,94662.00
2023-06-30T01:00:11.881Z,94662.00
2023-06-30T01:01:11.852Z,94662.00
2023-06-30T01:02:11.915Z,94664.00
2023-06-30T01:03:12.093Z,94664.00
2023-06-30T01:04:11.982Z,94662.00
2023-06-30T01:05:11.843Z,94662.00
2023-06-30T01:06:11.847Z,94659.00
2023-06-30T01:07:11.879Z,94657.00
2023-06-30T01:08:11.836Z,94655.00
2023-06-30T01:09:11.848Z,94653.00
2023-06-30T01:10:11.855Z,94651.00
2023-06-30T01:11:11.909Z,94647.00
2023-06-30T01:12:12.047Z,94645.00
2023-06-30T01:13:12.088Z,94645.00
2023-06-30T01:14:12.186Z,94645.00
2023-06-30T01:15:12.275Z,94647.00
2023-06-30T01:16:12.342Z,94647.00
2023-06-30T01:17:12.409Z,94643.00
2023-06-30T01:18:12.493Z,94639.00
2023-06-30T01:19:12.528Z,94637.00
2023-06-30T01:20:12.648Z,94633.00
2023-06-30T01:21:12.693Z,94629.00
2023-06-30T01:22:12.804Z,94627.00
2023-06-30T01:23:12.760Z,94625.00
2023-06-30T01:24:12.828Z,94623.00
2023-06-30T01:25:12.889Z,94623.00
2023-06-30T01:26:12.862Z,94623.00
2023-06-30T01:27:12.881Z,94623.00
2023-06-30T01:28:12.957Z,94623.00
2023-06-30T01:29:13.018Z,94623.00
2023-06-30T01:30:13.065Z,94625.00
2023-06-30T01:31:13.202Z,94623.00
2023-06-30T01:32:13.261Z,94619.00
2023-06-30T01:33:13.235Z,94619.00
2023-06-30T01:34:13.353Z,94619.00
2023-06-30T01:35:13.423Z,94621.00
2023-06-30T01:36:13.410Z,94621.00
2023-06-30T01:37:13.480Z,94619.00
2023-06-30T01:38:13.488Z,94619.00
2023-06-30T01:39:13.537Z,94609.00
2023-06-30T01:40:13.569Z,94609.00
2023-06-30T01:41:13.602Z,94609.00
2023-06-30T01:42:13.684Z,94609.00
2023-06-30T01:43:13.726Z,94608.00
2023-06-30T01:44:13.787Z,94608.00
2023-06-30T01:45:13.787Z,94608.00
2023-06-30T01:46:13.925Z,94608.00
2023-06-30T01:47:14.223Z,94609.00
2023-06-30T01:48:14.008Z,94608.00
2023-06-30T01:49:14.126Z,94609.00
2023-06-30T01:50:14.128Z,94609.00
2023-06-30T01:51:14.272Z,94619.00
2023-06-30T01:52:14.263Z,94611.00
2023-06-30T01:53:14.330Z,94619.00
2023-06-30T01:54:14.360Z,94611.00
2023-06-30T01:55:14.467Z,94611.00
2023-06-30T01:56:14.484Z,94611.00
2023-06-30T01:57:14.488Z,94608.00
2023-06-30T01:58:14.536Z,94606.00
2023-06-30T01:59:14.543Z,94606.00
2023-06-30T02:00:14.604Z,94606.00
2023-06-30T02:01:14.690Z,94604.00
2023-06-30T02:02:15.033Z,94604.00
2023-06-30T02:03:15.267Z,94608.00
2023-06-30T02:04:14.885Z,94609.00
2023-06-30T02:05:14.954Z,94619.00
2023-06-30T02:06:15.007Z,94611.00
2023-06-30T02:07:15.083Z,94609.00
2023-06-30T02:08:15.111Z,94611.00
2023-06-30T02:09:15.272Z,94608.00
2023-06-30T02:10:15.273Z,94611.00
2023-06-30T02:11:15.645Z,94608.00
2023-06-30T02:12:15.352Z,94619.00
2023-06-30T02:13:15.464Z,94619.00
2023-06-30T02:14:15.539Z,94619.00
2023-06-30T02:15:15.591Z,94619.00
2023-06-30T02:16:15.692Z,94611.00
2023-06-30T02:17:15.696Z,94609.00
2023-06-30T02:18:15.721Z,94604.00
2023-06-30T02:19:15.781Z,94600.00
2023-06-30T02:20:15.847Z,94594.00
2023-06-30T02:21:15.972Z,94590.00
2023-06-30T02:22:16.013Z,94590.00
2023-06-30T02:23:16.039Z,94588.00
2023-06-30T02:24:16.190Z,94592.00
2023-06-30T02:25:16.186Z,94592.00
2023-06-30T02:26:16.221Z,94594.00
2023-06-30T02:27:16.344Z,94594.00
2023-06-30T02:28:16.601Z,94596.00
2023-06-30T02:29:16.414Z,94596.00
2023-06-30T02:30:16.525Z,94594.00
2023-06-30T02:31:16.549Z,94590.00
2023-06-30T02:32:16.556Z,94588.00
2023-06-30T02:33:16.660Z,94588.00
2023-06-30T02:34:16.703Z,94590.00
2023-06-30T02:35:16.807Z,94590.00
2023-06-30T02:36:16.903Z,94590.00
2023-06-30T02:37:16.929Z,94588.00
2023-06-30T02:38:17.045Z,94590.00
2023-06-30T02:39:17.124Z,94588.00
2023-06-30T02:40:17.126Z,94588.00
2023-06-30T02:41:17.161Z,94586.00
2023-06-30T02:42:17.324Z,94588.00
2023-06-30T02:43:17.264Z,94588.00
2023-06-30T02:44:17.362Z,94588.00
2023-06-30T02:45:17.340Z,94588.00
2023-06-30T02:46:17.512Z,94586.00
2023-06-30T02:47:17.488Z,94582.00
2023-06-30T02:48:17.495Z,94580.00
2023-06-30T02:49:17.586Z,94582.00
2023-06-30T02:50:17.638Z,94580.00
2023-06-30T02:51:17.711Z,94580.00
2023-06-30T02:52:17.729Z,94580.00
2023-06-30T02:53:17.805Z,94580.00
2023-06-30T02:54:17.833Z,94580.00
2023-06-30T02:55:18.401Z,94580.00
2023-06-30T02:56:17.929Z,94578.00
2023-06-30T02:57:17.979Z,94578.00
2023-06-30T02:58:18.116Z,94576.00
2023-06-30T02:59:18.087Z,94578.00
2023-06-30T03:00:18.221Z,94576.00
2023-06-30T03:01:18.314Z,94578.00
2023-06-30T03:02:18.419Z,94574.00
2023-06-30T03:03:18.380Z,94574.00
2023-06-30T03:04:18.418Z,94572.00
2023-06-30T03:05:18.711Z,94568.00
2023-06-30T03:06:18.529Z,94568.00
2023-06-30T03:07:18.639Z,94566.00
2023-06-30T03:08:18.619Z,94564.00
2023-06-30T03:09:18.650Z,94566.00
2023-06-30T03:10:18.682Z,94562.00
2023-06-30T03:11:19.197Z,94566.00
2023-06-30T03:12:18.764Z,94564.00
2023-06-30T03:13:18.884Z,94564.00
2023-06-30T03:14:18.894Z,94566.00
2023-06-30T03:15:19.005Z,94564.00
2023-06-30T03:16:19.062Z,94564.00
2023-06-30T03:17:19.007Z,94562.00
2023-06-30T03:18:19.135Z,94558.00
2023-06-30T03:19:19.028Z,94560.00
2023-06-30T03:20:19.065Z,94558.00
2023-06-30T03:21:19.148Z,94558.00
2023-06-30T03:22:19.354Z,94558.00
2023-06-30T03:23:19.707Z,94558.00
2023-06-30T03:24:20.289Z,94560.00
2023-06-30T03:25:19.372Z,94562.00
2023-06-30T03:26:19.371Z,94560.00
2023-06-30T03:27:19.427Z,94560.00
2023-06-30T03:28:19.357Z,94558.00
2023-06-30T03:29:19.391Z,94557.00
2023-06-30T03:30:19.505Z,94557.00
2023-06-30T03:31:19.555Z,94557.00
2023-06-30T03:32:19.615Z,94557.00
2023-06-30T03:33:19.784Z,94557.00
2023-06-30T03:34:19.668Z,94555.00
2023-06-30T03:35:19.641Z,94555.00
2023-06-30T03:36:19.659Z,94553.00
2023-06-30T03:37:19.916Z,94553.00
2023-06-30T03:38:20.173Z,94547.00
2023-06-30T03:39:19.810Z,94547.00
2023-06-30T03:40:19.836Z,94557.00
2023-06-30T03:41:19.824Z,94557.00
2023-06-30T03:42:19.886Z,94551.00
2023-06-30T03:43:19.908Z,94557.00
2023-06-30T03:44:20.210Z,94551.00
2023-06-30T03:45:20.036Z,94551.00
2023-06-30T03:46:20.038Z,94553.00
2023-06-30T03:47:20.139Z,94551.00
2023-06-30T03:48:20.073Z,94553.00
2023-06-30T03:49:20.246Z,94553.00
2023-06-30T03:50:20.162Z,94551.00
2023-06-30T03:51:20.149Z,94553.00
2023-06-30T03:52:20.163Z,94553.00
2023-06-30T03:53:20.291Z,94551.00
2023-06-30T03:54:20.341Z,94551.00
2023-06-30T03:55:20.428Z,94549.00
2023-06-30T03:56:20.500Z,94549.00
2023-06-30T03:57:20.629Z,94551.00
2023-06-30T03:58:20.616Z,94549.00
2023-06-30T03:59:20.622Z,94545.00
2023-06-30T04:00:20.638Z,94545.00
2023-06-30T04:01:20.644Z,94545.00
2023-06-30T04:02:20.712Z,94543.00
2023-06-30T04:03:20.894Z,94545.00
2023-06-30T04:04:20.903Z,94543.00
2023-06-30T04:05:20.790Z,94541.00
2023-06-30T04:06:20.921Z,94545.00
2023-06-30T04:07:20.908Z,94545.00
2023-06-30T04:08:20.941Z,94545.00
2023-06-30T04:09:20.838Z,94543.00
2023-06-30T04:10:20.903Z,94537.00
2023-06-30T04:11:20.965Z,94537.00
2023-06-30T04:12:21.029Z,94535.00
2023-06-30T04:13:21.036Z,94531.00
2023-06-30T04:14:21.150Z,94535.00
2023-06-30T04:15:21.046Z,94531.00
2023-06-30T04:16:21.148Z,94531.00
2023-06-30T04:17:21.066Z,94529.00
2023-06-30T04:18:21.179Z,94525.00
2023-06-30T04:19:21.173Z,94527.00
2023-06-30T04:20:21.117Z,94529.00
2023-06-30T04:21:21.120Z,94529.00
2023-06-30T04:22:21.088Z,94527.00
2023-06-30T04:23:21.132Z,94527.00
2023-06-30T04:24:21.209Z,94527.00
2023-06-30T04:25:21.337Z,94525.00
2023-06-30T04:26:21.430Z,94523.00
2023-06-30T04:27:21.463Z,94519.00
2023-06-30T04:28:21.476Z,94517.00
2023-06-30T04:29:21.496Z,94515.00
2023-06-30T04:30:21.455Z,94517.00
2023-06-30T04:31:21.486Z,94513.00
2023-06-30T04:32:21.466Z,94515.00
2023-06-30T04:33:21.585Z,94515.00
2023-06-30T04:34:21.634Z,94515.00
2023-06-30T04:35:21.725Z,94515.00
2023-06-30T04:36:21.827Z,94515.00
2023-06-30T04:37:22.256Z,94517.00
2023-06-30T04:38:24.128Z,94517.00
2023-06-30T04:39:21.816Z,94517.00
2023-06-30T04:40:21.829Z,94517.00
2023-06-30T04:41:21.780Z,94515.00
2023-06-30T04:42:21.818Z,94515.00
2023-06-30T04:43:21.750Z,94515.00
2023-06-30T04:44:21.752Z,94515.00
2023-06-30T04:45:21.764Z,94513.00
2023-06-30T04:46:21.810Z,94513.00
2023-06-30T04:47:21.818Z,94511.00
2023-06-30T04:48:21.749Z,94511.00
2023-06-30T04:49:21.730Z,94509.00
2023-06-30T04:50:21.765Z,94507.00
2023-06-30T04:51:21.746Z,94507.00
2023-06-30T04:52:21.714Z,94507.00
2023-06-30T04:53:21.780Z,94507.00
2023-06-30T04:54:21.732Z,94506.00
2023-06-30T04:55:22.279Z,94506.00
2023-06-30T04:56:21.735Z,94504.00
2023-06-30T04:57:21.659Z,94504.00
2023-06-30T04:58:21.686Z,94504.00
2023-06-30T04:59:21.656Z,94506.00
2023-06-30T05:00:21.660Z,94506.00
2023-06-30T05:01:21.657Z,94506.00
2023-06-30T05:02:21.694Z,94507.00
2023-06-30T05:03:21.844Z,94509.00
2023-06-30T05:04:21.624Z,94511.00
2023-06-30T05:05:21.637Z,94507.00
2023-06-30T05:06:21.640Z,94511.00
2023-06-30T05:07:21.720Z,94511.00
2023-06-30T05:08:21.622Z,94511.00
2023-06-30T05:09:21.611Z,94511.00
2023-06-30T05:10:21.621Z,94509.00
2023-06-30T05:11:21.628Z,94511.00
2023-06-30T05:12:21.587Z,94511.00
2023-06-30T05:13:22.003Z,94509.00
2023-06-30T05:14:21.549Z,94509.00
2023-06-30T05:15:21.564Z,94507.00
2023-06-30T05:16:21.691Z,94506.00
2023-06-30T05:17:21.671Z,94507.00
2023-06-30T05:18:21.550Z,94504.00
2023-06-30T05:19:21.599Z,94506.00
2023-06-30T05:20:21.520Z,94504.00
2023-06-30T05:21:21.539Z,94502.00
2023-06-30T05:22:21.519Z,94504.00
2023-06-30T05:23:21.497Z,94504.00
2023-06-30T05:24:21.520Z,94504.00
2023-06-30T05:25:21.639Z,94504.00
2023-06-30T05:26:21.523Z,94506.00
2023-06-30T05:27:22.306Z,94504.00
2023-06-30T05:28:21.472Z,94506.00
2023-06-30T05:29:21.485Z,94506.00
2023-06-30T05:30:21.486Z,94506.00
2023-06-30T05:31:21.485Z,94506.00
2023-06-30T05:32:21.563Z,94504.00
2023-06-30T05:33:21.514Z,94506.00
2023-06-30T05:34:21.476Z,94507.00
2023-06-30T05:35:21.495Z,94506.00
2023-06-30T05:36:21.441Z,94506.00
2023-06-30T05:37:21.446Z,94507.00
2023-06-30T05:38:21.395Z,94507.00
2023-06-30T05:39:21.413Z,94506.00
2023-06-30T05:40:21.425Z,94507.00
2023-06-30T05:41:21.437Z,94507.00
2023-06-30T05:42:21.427Z,94506.00
2023-06-30T05:43:21.390Z,94506.00
2023-06-30T05:44:21.461Z,94507.00
2023-06-30T05:45:22.179Z,94507.00
2023-06-30T05:46:21.421Z,94504.00
2023-06-30T05:47:21.431Z,94504.00
2023-06-30T05:48:21.599Z,94504.00
2023-06-30T05:49:21.536Z,94506.00
2023-06-30T05:50:21.592Z,94506.00
2023-06-30T05:51:21.647Z,94504.00
2023-06-30T05:52:22.025Z,94506.00
2023-06-30T05:53:21.727Z,94506.00
2023-06-30T05:54:21.737Z,94507.00
2023-06-30T05:55:21.821Z,94506.00
2023-06-30T05:56:21.939Z,94507.00
2023-06-30T05:57:21.950Z,94509.00
2023-06-30T05:58:22.013Z,94507.00
2023-06-30T05:59:22.029Z,94511.00
2023-06-30T06:00:22.101Z,94511.00
2023-06-30T06:01:22.322Z,94513.00
2023-06-30T06:02:22.275Z,94513.00
2023-06-30T06:03:22.348Z,94515.00
2023-06-30T06:04:22.774Z,94511.00
2023-06-30T06:05:22.589Z,94513.00
2023-06-30T06:06:22.454Z,94515.00
2023-06-30T06:07:22.726Z,94517.00
2023-06-30T06:08:22.638Z,94517.00
2023-06-30T06:09:22.637Z,94517.00
2023-06-30T06:10:22.646Z,94519.00
2023-06-30T06:11:22.774Z,94519.00
2023-06-30T06:12:22.891Z,94521.00
2023-06-30T06:13:22.797Z,94517.00
2023-06-30T06:14:22.880Z,94519.00
2023-06-30T06:15:22.983Z,94519.00
2023-06-30T06:16:22.965Z,94521.00
2023-06-30T06:17:22.959Z,94519.00
2023-06-30T06:18:23.042Z,94523.00
2023-06-30T06:19:23.116Z,94525.00
2023-06-30T06:20:23.124Z,94525.00
2023-06-30T06:21:23.173Z,94529.00
2023-06-30T06:22:23.277Z,94525.00
2023-06-30T06:23:23.291Z,94529.00
2023-06-30T06:24:23.392Z,94531.00
2023-06-30T06:25:23.386Z,94529.00
2023-06-30T06:26:23.399Z,94529.00
2023-06-30T06:27:23.514Z,94533.00
2023-06-30T06:28:23.581Z,94529.00
2023-06-30T06:29:23.604Z,94529.00
2023-06-30T06:30:23.752Z,94531.00
2023-06-30T06:31:24.419Z,94529.00
2023-06-30T06:32:23.804Z,94531.00
2023-06-30T06:33:23.871Z,94529.00
2023-06-30T06:34:23.961Z,94531.00
2023-06-30T06:35:23.947Z,94529.00
2023-06-30T06:36:24.016Z,94529.00
2023-06-30T06:37:24.061Z,94531.00
2023-06-30T06:38:24.077Z,94531.00
2023-06-30T06:39:24.148Z,94529.00
2023-06-30T06:40:24.200Z,94529.00
2023-06-30T06:41:24.295Z,94529.00
2023-06-30T06:42:24.314Z,94527.00
2023-06-30T06:43:24.342Z,94525.00
2023-06-30T06:44:24.386Z,94521.00
2023-06-30T06:45:24.418Z,94523.00
2023-06-30T06:46:24.503Z,94525.00
2023-06-30T06:47:24.627Z,94523.00
2023-06-30T06:48:24.713Z,94525.00
2023-06-30T06:49:24.716Z,94527.00
2023-06-30T06:50:24.796Z,94527.00
2023-06-30T06:51:24.776Z,94529.00
2023-06-30T06:52:24.885Z,94529.00
2023-06-30T06:53:24.928Z,94529.00
2023-06-30T06:54:25.002Z,94533.00
2023-06-30T06:55:25.052Z,94531.00
2023-06-30T06:56:25.082Z,94529.00
2023-06-30T06:57:25.152Z,94529.00
2023-06-30T06:58:25.170Z,94527.00
2023-06-30T06:59:25.249Z,94527.00
2023-06-30T07:00:25.337Z,94527.00
2023-06-30T07:01:25.409Z,94527.00
2023-06-30T07:02:25.473Z,94525.00
2023-06-30T07:03:25.543Z,94523.00
2023-06-30T07:04:25.466Z,94527.00
2023-06-30T07:05:25.574Z,94521.00
2023-06-30T07:06:25.639Z,94523.00
2023-06-30T07:07:25.716Z,94521.00
2023-06-30T07:08:25.778Z,94521.00
2023-06-30T07:09:25.840Z,94523.00
2023-06-30T07:10:25.883Z,94521.00
2023-06-30T07:11:26.016Z,94523.00
2023-06-30T07:12:26.036Z,94523.00
2023-06-30T07:13:26.114Z,94525.00
2023-06-30T07:14:26.172Z,94525.00
2023-06-30T07:15:26.215Z,94523.00
2023-06-30T07:16:26.311Z,94525.00
2023-06-30T07:17:26.326Z,94525.00
2023-06-30T07:18:26.384Z,94523.00
2023-06-30T07:19:26.393Z,94525.00
2023-06-30T07:20:26.480Z,94525.00
2023-06-30T07:21:26.622Z,94523.00
2023-06-30T07:22:26.572Z,94523.00
2023-06-30T07:23:27.358Z,94523.00
2023-06-30T07:24:26.621Z,94521.00
2023-06-30T07:25:26.707Z,94523.00
2023-06-30T07:26:26.760Z,94521.00
2023-06-30T07:27:26.786Z,94523.00
2023-06-30T07:28:26.882Z,94525.00
2023-06-30T07:29:26.830Z,94523.00
2023-06-30T07:30:26.840Z,94523.00
2023-06-30T07:31:26.953Z,94523.00
2023-06-30T07:32:27.241Z,94521.00
2023-06-30T07:33:27.124Z,94519.00
2023-06-30T07:34:27.146Z,94519.00
2023-06-30T07:35:27.248Z,94519.00
2023-06-30T07:36:27.255Z,94523.00
2023-06-30T07:37:27.283Z,94525.00
2023-06-30T07:38:27.406Z,94523.00
2023-06-30T07:39:27.455Z,94521.00
2023-06-30T07:40:30.339Z,94523.00
2023-06-30T07:41:28.522Z,94521.00
2023-06-30T07:42:27.466Z,94523.00
2023-06-30T07:43:27.486Z,94527.00
2023-06-30T07:44:27.483Z,94523.00
2023-06-30T07:45:27.526Z,94527.00
2023-06-30T07:46:27.505Z,94523.00
2023-06-30T07:47:27.546Z,94523.00
2023-06-30T07:48:27.640Z,94521.00
2023-06-30T07:49:27.621Z,94521.00
2023-06-30T07:50:27.727Z,94521.00
2023-06-30T07:51:27.740Z,94523.00
2023-06-30T07:52:27.777Z,94523.00
2023-06-30T07:53:27.919Z,94523.00
2023-06-30T07:54:27.926Z,94523.00
2023-06-30T07:55:28.001Z,94523.00
2023-06-30T07:56:27.995Z,94521.00
2023-06-30T07:57:28.093Z,94517.00
2023-06-30T07:58:28.186Z,94517.00
2023-06-30T07:59:28.200Z,94517.00
2023-06-30T08:00:28.271Z,94513.00
2023-06-30T08:01:28.336Z,94515.00
2023-06-30T08:02:28.462Z,94513.00
2023-06-30T08:03:28.497Z,94511.00
2023-06-30T08:04:28.763Z,94509.00
2023-06-30T08:05:28.944Z,94511.00
2023-06-30T08:06:28.606Z,94513.00
2023-06-30T08:07:44.489Z,94513.00
2023-06-30T08:08:29.699Z,94511.00
2023-06-30T08:09:28.687Z,94509.00
2023-06-30T08:10:28.675Z,94504.00
2023-06-30T08:11:28.634Z,94515.00
2023-06-30T08:12:28.655Z,94517.00
2023-06-30T08:13:28.664Z,94517.00
2023-06-30T08:14:28.674Z,94519.00
2023-06-30T08:15:28.672Z,94519.00
2023-06-30T08:16:28.732Z,94519.00
2023-06-30T08:17:34.557Z,94523.00
2023-06-30T08:18:32.686Z,94517.00
2023-06-30T08:19:47.178Z,94519.00
2023-06-30T08:20:29.796Z,94519.00
2023-06-30T08:21:28.838Z,94517.00
2023-06-30T08:22:28.804Z,94515.00
2023-06-30T08:23:28.719Z,94511.00
2023-06-30T08:24:28.791Z,94515.00
2023-06-30T08:25:28.731Z,94511.00
2023-06-30T08:26:28.753Z,94507.00
2023-06-30T08:27:28.749Z,94507.00
2023-06-30T08:28:28.814Z,94507.00
2023-06-30T08:29:28.863Z,94504.00
2023-06-30T08:30:28.950Z,94504.00
2023-06-30T08:31:29.066Z,94506.00
2023-06-30T08:32:29.033Z,94506.00
2023-06-30T08:33:39.883Z,94507.00
2023-06-30T08:34:30.144Z,94507.00
2023-06-30T08:35:29.493Z,94507.00
2023-06-30T08:36:29.079Z,94507.00
2023-06-30T08:37:29.083Z,94507.00
2023-06-30T08:38:30.306Z,94509.00
2023-06-30T08:39:29.072Z,94506.00
2023-06-30T08:40:29.142Z,94506.00
2023-06-30T08:41:29.099Z,94504.00
2023-06-30T08:42:29.013Z,94504.00
2023-06-30T08:43:29.023Z,94504.00
2023-06-30T08:44:29.097Z,94502.00
2023-06-30T08:45:29.133Z,94500.00
2023-06-30T08:46:29.290Z,94498.00
2023-06-30T08:47:29.268Z,94500.00
2023-06-30T08:48:29.308Z,94498.00
2023-06-30T08:49:29.412Z,94498.00
2023-06-30T08:50:29.373Z,94500.00
2023-06-30T08:51:29.388Z,94498.00
2023-06-30T08:52:32.366Z,94498.00
2023-06-30T08:53:29.757Z,94498.00
2023-06-30T08:54:29.407Z,94500.00
2023-06-30T08:55:29.415Z,94502.00
2023-06-30T08:56:29.411Z,94507.00
2023-06-30T08:57:29.470Z,94506.00
2023-06-30T08:58:29.419Z,94507.00
2023-06-30T08:59:29.389Z,94506.00
2023-06-30T09:00:29.799Z,94509.00
2023-06-30T09:01:29.399Z,94509.00
2023-06-30T09:02:29.533Z,94513.00
2023-06-30T09:03:29.459Z,94511.00
2023-06-30T09:04:29.714Z,94511.00
2023-06-30T09:05:29.314Z,94509.00
2023-06-30T09:06:29.322Z,94509.00
2023-06-30T09:07:29.382Z,94507.00
2023-06-30T09:08:29.290Z,94506.00
2023-06-30T09:09:29.299Z,94504.00
2023-06-30T09:10:29.382Z,94504.00
2023-06-30T09:11:29.319Z,94506.00
2023-06-30T09:12:29.321Z,94504.00
2023-06-30T09:13:29.272Z,94506.00
2023-06-30T09:14:29.645Z,94506.00
2023-06-30T09:15:29.267Z,94509.00
2023-06-30T09:16:29.275Z,94511.00
2023-06-30T09:17:29.278Z,94513.00
2023-06-30T09:18:29.258Z,94515.00
2023-06-30T09:19:29.256Z,94513.00
2023-06-30T09:20:29.278Z,94517.00
2023-06-30T09:21:29.274Z,94513.00
2023-06-30T09:22:53.033Z,94513.00
2023-06-30T09:23:30.215Z,94511.00
2023-06-30T09:24:29.244Z,94506.00
2023-06-30T09:25:29.301Z,94504.00
2023-06-30T09:26:31.461Z,94504.00
2023-06-30T09:27:29.226Z,94500.00
2023-06-30T09:28:29.243Z,94500.00
2023-06-30T09:29:29.162Z,94496.00
2023-06-30T09:30:29.237Z,94496.00
2023-06-30T09:31:29.257Z,94496.00
2023-06-30T09:32:29.152Z,94498.00
2023-06-30T09:33:29.160Z,94500.00
2023-06-30T09:34:29.398Z,94500.00
2023-06-30T09:35:29.173Z,94502.00
2023-06-30T09:36:29.114Z,94498.00
2023-06-30T09:37:29.121Z,94500.00
2023-06-30T09:38:29.807Z,94498.00
2023-06-30T09:39:29.125Z,94496.00
2023-06-30T09:40:29.184Z,94494.00
2023-06-30T09:41:29.094Z,94488.00
2023-06-30T09:42:29.096Z,94488.00
2023-06-30T09:43:29.154Z,94488.00
2023-06-30T09:44:29.115Z,94486.00
2023-06-30T09:45:29.072Z,94480.00
2023-06-30T09:46:31.935Z,94478.00
2023-06-30T09:47:29.132Z,94480.00
2023-06-30T09:48:29.048Z,94478.00
2023-06-30T09:49:29.057Z,94472.00
2023-06-30T09:50:29.071Z,94472.00
2023-06-30T09:51:29.083Z,94472.00
2023-06-30T09:52:29.026Z,94470.00
2023-06-30T09:53:29.034Z,94470.00
2023-06-30T09:54:43.203Z,94472.00
2023-06-30T09:55:30.070Z,94470.00
2023-06-30T09:56:29.000Z,94472.00
2023-06-30T09:57:29.035Z,94472.00
2023-06-30T09:58:29.027Z,94472.00
2023-06-30T09:59:29.050Z,94476.00
2023-06-30T10:00:36.410Z,94474.00
2023-06-30T10:01:29.973Z,94476.00
2023-06-30T10:02:29.024Z,94472.00
2023-06-30T10:03:29.118Z,94476.00
2023-06-30T10:04:28.955Z,94472.00
2023-06-30T10:05:28.945Z,94474.00
2023-06-30T10:06:29.045Z,94476.00
2023-06-30T10:07:29.158Z,94480.00
2023-06-30T10:08:28.920Z,94480.00
2023-06-30T10:09:28.929Z,94484.00
2023-06-30T10:10:29.099Z,94482.00
2023-06-30T10:11:29.011Z,94482.00
2023-06-30T10:12:29.100Z,94482.00
2023-06-30T10:13:29.222Z,94482.00
2023-06-30T10:14:29.168Z,94482.00
2023-06-30T10:15:29.246Z,94482.00
2023-06-30T10:16:29.328Z,94482.00
2023-06-30T10:17:29.446Z,94478.00
2023-06-30T10:18:29.472Z,94480.00
2023-06-30T10:19:29.510Z,94476.00
2023-06-30T10:20:42.598Z,94480.00
2023-06-30T10:21:30.505Z,94476.00
2023-06-30T10:22:29.939Z,94476.00
2023-06-30T10:23:29.489Z,94478.00
2023-06-30T10:24:29.502Z,94480.00
2023-06-30T10:25:29.523Z,94480.00
2023-06-30T10:26:30.420Z,94484.00
2023-06-30T10:27:29.535Z,94484.00
2023-06-30T10:28:29.455Z,94484.00
2023-06-30T10:29:29.526Z,94486.00
2023-06-30T10:30:29.631Z,94482.00
2023-06-30T10:31:29.596Z,94484.00
2023-06-30T10:32:29.693Z,94482.00
2023-06-30T10:33:29.895Z,94484.00
2023-06-30T10:34:29.768Z,94484.00
2023-06-30T10:35:29.816Z,94482.00
2023-06-30T10:36:29.946Z,94484.00
2023-06-30T10:37:30.044Z,94482.00
2023-06-30T10:38:30.063Z,94482.00
2023-06-30T10:39:30.116Z,94482.00
2023-06-30T10:40:30.241Z,94480.00
2023-06-30T10:41:30.243Z,94482.00
2023-06-30T10:42:30.278Z,94478.00
2023-06-30T10:43:30.358Z,94480.00
2023-06-30T10:44:30.442Z,94478.00
2023-06-30T10:45:30.491Z,94476.00
2023-06-30T10:46:30.580Z,94478.00
2023-06-30T10:47:30.587Z,94476.00
2023-06-30T10:48:30.665Z,94474.00
2023-06-30T10:49:30.732Z,94474.00
2023-06-30T10:50:30.741Z,94474.00
2023-06-30T10:51:30.845Z,94470.00
2023-06-30T10:52:31.219Z,94472.00
2023-06-30T10:53:31.039Z,94470.00
2023-06-30T10:54:31.101Z,94470.00
2023-06-30T10:55:31.054Z,94468.00
2023-06-30T10:56:31.191Z,94468.00
2023-06-30T10:57:31.134Z,94464.00
2023-06-30T10:58:31.203Z,94464.00
2023-06-30T10:59:31.285Z,94460.00
2023-06-30T11:00:31.343Z,94459.00
2023-06-30T11:01:31.378Z,94457.00
2023-06-30T11:02:31.496Z,94459.00
2023-06-30T11:03:31.611Z,94457.00
2023-06-30T11:04:31.916Z,94457.00
2023-06-30T11:05:31.603Z,94457.00
2023-06-30T11:06:31.730Z,94453.00
2023-06-30T11:07:31.699Z,94453.00
2023-06-30T11:08:31.717Z,94449.00
2023-06-30T11:09:31.793Z,94449.00
2023-06-30T11:10:31.834Z,94449.00
2023-06-30T11:11:31.909Z,94447.00
2023-06-30T11:12:31.976Z,94449.00
2023-06-30T11:13:31.989Z,94447.00
2023-06-30T11:14:32.071Z,94445.00
2023-06-30T11:15:32.118Z,94445.00
2023-06-30T11:16:32.137Z,94445.00
2023-06-30T11:17:32.314Z,94443.00
2023-06-30T11:18:32.417Z,94445.00
2023-06-30T11:19:32.374Z,94439.00
2023-06-30T11:20:32.426Z,94439.00
2023-06-30T11:21:32.410Z,94437.00
2023-06-30T11:22:32.510Z,94437.00
2023-06-30T11:23:32.955Z,94437.00
2023-06-30T11:24:32.566Z,94437.00
2023-06-30T11:25:32.593Z,94435.00
2023-06-30T11:26:32.615Z,94431.00
2023-06-30T11:27:32.614Z,94431.00
2023-06-30T11:28:32.838Z,94429.00
2023-06-30T11:29:32.725Z,94429.00
2023-06-30T11:30:32.761Z,94427.00
2023-06-30T11:31:32.797Z,94423.00
2023-06-30T11:32:32.826Z,94425.00
2023-06-30T11:33:32.841Z,94429.00
2023-06-30T11:34:32.878Z,94427.00
2023-06-30T11:35:33.193Z,94425.00
2023-06-30T11:36:32.876Z,94425.00
2023-06-30T11:37:32.949Z,94419.00
2023-06-30T11:38:32.912Z,94417.00
2023-06-30T11:39:32.921Z,94415.00
2023-06-30T11:40:32.946Z,94411.00
2023-06-30T11:41:32.923Z,94411.00
2023-06-30T11:42:32.963Z,94408.00
2023-06-30T11:43:32.948Z,94404.00
2023-06-30T11:44:32.951Z,94406.00